Time;durP1;ratioP1;P1;durP2;ratioP2;P2;SDS_P1;SDS_P2;PMS_P1;PMS_P2;Temp;Humidity;BMP_temperature;BMP_pressure;BME280_temperature;BME280_humidity;BME280_pressure;Samples;Min_cycle;Max_cycle;Signal;HPM_P1;HPM_P2
2023/05/06 00:01:00;;;;;;;26.80;4.40;;;;;;;;;;5032554;28;20120;-84
2023/05/06 00:03:26;;;;;;;17.75;3.28;;;;;;;;;;5030800;28;20025;-85
2023/05/06 00:05:52;;;;;;;20.75;3.42;;;;;;;;;;5041555;28;20052;-85
2023/05/06 00:08:17;;;;;;;21.60;4.22;;;;;;;;;;5036069;28;20042;-84
2023/05/06 00:10:44;;;;;;;26.10;4.55;;;;;;;;;;5040599;28;20111;-85
2023/05/06 00:13:10;;;;;;;20.98;4.15;;;;;;;;;;5038580;28;20045;-85
2023/05/06 00:15:35;;;;;;;17.25;4.20;;;;;;;;;;5029217;28;20129;-85
2023/05/06 00:18:01;;;;;;;16.00;3.03;;;;;;;;;;5041982;28;20029;-84
2023/05/06 00:20:27;;;;;;;17.80;3.50;;;;;;;;;;5045823;28;20048;-82
2023/05/06 00:22:53;;;;;;;24.63;3.35;;;;;;;;;;5058129;28;20052;-84
2023/05/06 00:25:18;;;;;;;21.02;4.38;;;;;;;;;;5038385;28;20075;-84
2023/05/06 00:27:44;;;;;;;20.70;3.78;;;;;;;;;;5041163;28;20041;-85
2023/05/06 00:30:10;;;;;;;29.55;4.00;;;;;;;;;;5037546;28;20048;-82
2023/05/06 00:32:35;;;;;;;16.48;4.30;;;;;;;;;;5053812;28;20036;-84
2023/05/06 00:35:02;;;;;;;20.23;3.30;;;;;;;;;;5035519;28;20517;-84
2023/05/06 00:37:27;;;;;;;23.52;4.07;;;;;;;;;;5033032;28;20120;-84
2023/05/06 00:39:53;;;;;;;20.33;4.05;;;;;;;;;;5032507;28;20125;-84
2023/05/06 00:42:21;;;;;;;19.45;3.88;;;;;;;;;;5039382;28;20068;-85
2023/05/06 00:44:46;;;;;;;18.83;3.97;;;;;;;;;;5042149;28;20094;-82
2023/05/06 00:47:12;;;;;;;37.97;4.53;;;;;;;;;;5032878;28;20492;-83
2023/05/06 00:49:37;;;;;;;25.05;4.43;;;;;;;;;;5031273;28;20045;-84
2023/05/06 00:52:03;;;;;;;27.77;4.68;;;;;;;;;;5033884;28;20045;-85
2023/05/06 00:54:28;;;;;;;15.45;4.07;;;;;;;;;;5031749;28;20135;-85
2023/05/06 00:56:54;;;;;;;20.65;4.65;;;;;;;;;;5034834;28;20042;-86
2023/05/06 00:59:21;;;;;;;19.02;3.58;;;;;;;;;;5043251;28;20122;-84
2023/05/06 01:01:48;;;;;;;16.17;3.20;;;;;;;;;;5039647;28;20050;-85
2023/05/06 01:04:14;;;;;;;10.48;4.07;;;;;;;;;;5036087;28;20052;-86
2023/05/06 01:06:50;;;;;;;11.05;2.67;;;;;;;;;;5030509;28;20048;-85
2023/05/06 01:09:23;;;;;;;18.42;3.50;;;;;;;;;;5060906;28;20057;-85
2023/05/06 01:11:54;;;;;;;18.88;3.50;;;;;;;;;;5033449;28;20051;-84
2023/05/06 01:14:46;;;;;;;17.15;3.67;;;;;;;;;;5041264;28;20124;-84
2023/05/06 01:17:11;;;;;;;14.48;3.38;;;;;;;;;;5023546;28;20530;-85
2023/05/06 01:19:45;;;;;;;12.75;3.42;;;;;;;;;;5026256;28;20081;-84
2023/05/06 01:22:12;;;;;;;18.60;3.63;;;;;;;;;;5038524;28;20045;-84
2023/05/06 01:24:42;;;;;;;12.73;3.00;;;;;;;;;;5035121;28;20088;-84
2023/05/06 01:27:09;;;;;;;14.75;3.75;;;;;;;;;;5036132;28;20052;-84
2023/05/06 01:29:36;;;;;;;19.65;3.33;;;;;;;;;;5038598;28;20481;-85
2023/05/06 01:32:11;;;;;;;11.05;3.10;;;;;;;;;;5042329;28;21271;-84
2023/05/06 01:34:44;;;;;;;20.35;3.65;;;;;;;;;;5042108;28;20045;-84
2023/05/06 01:37:24;;;;;;;21.07;3.87;;;;;;;;;;5054561;28;20052;-84
2023/05/06 01:39:52;;;;;;;18.88;3.95;;;;;;;;;;5040060;28;20282;-85
2023/05/06 01:42:18;;;;;;;20.48;3.85;;;;;;;;;;5049620;28;20374;-84
2023/05/06 01:44:43;;;;;;;20.10;3.47;;;;;;;;;;5061200;28;20179;-84
2023/05/06 01:47:10;;;;;;;20.60;4.13;;;;;;;;;;5026387;28;20112;-85
2023/05/06 01:49:36;;;;;;;17.38;3.78;;;;;;;;;;5035992;28;20034;-84
2023/05/06 01:52:02;;;;;;;14.93;3.63;;;;;;;;;;5035858;28;20042;-85
2023/05/06 01:54:27;;;;;;;24.85;4.85;;;;;;;;;;5041271;28;20104;-84
2023/05/06 01:56:53;;;;;;;20.55;3.50;;;;;;;;;;5039734;28;20389;-84
2023/05/06 01:59:18;;;;;;;24.85;4.00;;;;;;;;;;5041753;28;20045;-85
2023/05/06 02:01:44;;;;;;;25.13;4.07;;;;;;;;;;5037401;28;20083;-85
2023/05/06 02:04:09;;;;;;;19.25;3.67;;;;;;;;;;5034902;28;20041;-86
2023/05/06 02:06:35;;;;;;;19.45;3.75;;;;;;;;;;5039103;28;20049;-84
2023/05/06 02:09:00;;;;;;;20.20;3.72;;;;;;;;;;5034726;28;20410;-85
2023/05/06 02:11:25;;;;;;;26.98;3.72;;;;;;;;;;5040291;28;20098;-84
2023/05/06 02:13:51;;;;;;;26.33;3.95;;;;;;;;;;5042188;28;20028;-85
2023/05/06 02:16:16;;;;;;;20.73;4.90;;;;;;;;;;5035900;28;20037;-85
2023/05/06 02:18:42;;;;;;;20.35;3.95;;;;;;;;;;5037180;28;20080;-85
2023/05/06 02:21:08;;;;;;;14.35;3.05;;;;;;;;;;5035821;28;20041;-85
2023/05/06 02:23:34;;;;;;;28.20;4.32;;;;;;;;;;5034103;28;20484;-84
2023/05/06 02:25:59;;;;;;;16.38;4.00;;;;;;;;;;5036637;28;20038;-85
2023/05/06 02:28:24;;;;;;;22.63;5.05;;;;;;;;;;5040384;28;20045;-85
2023/05/06 02:30:54;;;;;;;24.25;4.30;;;;;;;;;;5039268;28;20072;-84
2023/05/06 02:33:20;;;;;;;25.52;4.35;;;;;;;;;;5041803;28;20037;-85
2023/05/06 02:35:46;;;;;;;25.33;4.20;;;;;;;;;;5039018;28;20049;-84
2023/05/06 02:38:11;;;;;;;25.00;3.70;;;;;;;;;;5042858;28;20041;-86
2023/05/06 02:40:36;;;;;;;22.83;3.70;;;;;;;;;;5038619;28;20038;-84
2023/05/06 02:43:02;;;;;;;19.83;3.97;;;;;;;;;;5045472;28;20536;-84
2023/05/06 02:45:27;;;;;;;18.27;3.78;;;;;;;;;;5048114;28;20025;-85
2023/05/06 02:47:52;;;;;;;15.23;3.85;;;;;;;;;;5044124;28;20064;-86
2023/05/06 02:50:18;;;;;;;16.45;4.00;;;;;;;;;;5038257;28;20041;-82
2023/05/06 02:52:43;;;;;;;17.48;3.65;;;;;;;;;;5044505;28;20377;-84
2023/05/06 02:55:09;;;;;;;30.77;4.13;;;;;;;;;;5033264;28;20052;-84
2023/05/06 02:57:34;;;;;;;24.05;3.22;;;;;;;;;;5047179;28;20492;-84
2023/05/06 02:59:59;;;;;;;21.13;4.13;;;;;;;;;;5040573;28;20393;-83
2023/05/06 03:02:25;;;;;;;17.25;3.67;;;;;;;;;;5032350;28;20034;-83
2023/05/06 03:04:50;;;;;;;16.52;3.50;;;;;;;;;;5042337;28;20477;-81
2023/05/06 03:07:16;;;;;;;27.00;4.20;;;;;;;;;;5038234;28;20033;-85
2023/05/06 03:09:41;;;;;;;16.13;3.78;;;;;;;;;;5056091;28;20029;-84
2023/05/06 03:12:06;;;;;;;22.73;3.42;;;;;;;;;;5042320;28;20071;-84
2023/05/06 03:14:32;;;;;;;20.88;3.85;;;;;;;;;;5044381;28;20040;-82
2023/05/06 03:16:57;;;;;;;20.58;3.20;;;;;;;;;;5039044;28;20029;-84
2023/05/06 03:19:22;;;;;;;19.30;4.10;;;;;;;;;;5044028;28;20366;-84
2023/05/06 03:21:48;;;;;;;20.10;3.15;;;;;;;;;;5038078;28;20028;-84
2023/05/06 03:24:13;;;;;;;22.88;3.67;;;;;;;;;;5030821;28;20036;-84
2023/05/06 03:26:38;;;;;;;21.35;3.50;;;;;;;;;;5039182;28;20099;-83
2023/05/06 03:29:04;;;;;;;19.45;3.63;;;;;;;;;;5040513;28;20029;-81
2023/05/06 03:31:29;;;;;;;20.02;4.68;;;;;;;;;;5033702;28;20495;-84
2023/05/06 03:33:55;;;;;;;27.00;4.18;;;;;;;;;;5032484;28;20041;-85
2023/05/06 03:36:22;;;;;;;19.45;3.95;;;;;;;;;;5036954;28;20485;-84
2023/05/06 03:38:48;;;;;;;34.35;4.15;;;;;;;;;;5032947;28;20708;-85
2023/05/06 03:41:13;;;;;;;16.02;3.70;;;;;;;;;;5044362;28;20048;-84
2023/05/06 03:43:39;;;;;;;18.85;4.15;;;;;;;;;;5041621;28;20056;-84
2023/05/06 03:46:04;;;;;;;26.42;4.25;;;;;;;;;;5038201;28;20061;-83
2023/05/06 03:48:30;;;;;;;17.40;3.50;;;;;;;;;;5041881;28;20041;-83
2023/05/06 03:50:55;;;;;;;15.82;3.63;;;;;;;;;;5038566;28;20063;-83
2023/05/06 03:53:21;;;;;;;19.05;3.60;;;;;;;;;;5038823;28;20040;-83
2023/05/06 03:55:46;;;;;;;19.85;3.38;;;;;;;;;;5049437;28;20539;-83
2023/05/06 03:58:11;;;;;;;22.88;4.70;;;;;;;;;;5052308;28;20033;-84
2023/05/06 04:00:37;;;;;;;19.17;3.50;;;;;;;;;;5057230;28;20044;-83
2023/05/06 04:03:02;;;;;;;25.13;4.30;;;;;;;;;;5034770;28;20041;-84
2023/05/06 04:05:28;;;;;;;15.48;3.70;;;;;;;;;;5033390;28;20124;-83
2023/05/06 04:07:53;;;;;;;15.05;3.55;;;;;;;;;;5031864;28;20095;-83
2023/05/06 04:10:19;;;;;;;12.68;3.35;;;;;;;;;;5034926;28;20472;-83
2023/05/06 04:12:44;;;;;;;12.95;3.13;;;;;;;;;;5042475;28;20033;-83
2023/05/06 04:15:10;;;;;;;10.43;3.45;;;;;;;;;;5035798;28;20037;-83
2023/05/06 04:17:35;;;;;;;22.90;3.85;;;;;;;;;;5042420;28;20095;-83
2023/05/06 04:20:10;;;;;;;22.60;3.33;;;;;;;;;;5033329;28;20358;-82
2023/05/06 04:22:36;;;;;;;10.57;2.85;;;;;;;;;;5035379;28;20037;-83
2023/05/06 04:25:01;;;;;;;12.30;3.03;;;;;;;;;;5050877;28;20037;-83
2023/05/06 04:27:28;;;;;;;20.67;4.22;;;;;;;;;;5046814;28;21250;-83
2023/05/06 04:29:54;;;;;;;24.80;3.88;;;;;;;;;;5034068;28;20508;-83
2023/05/06 04:32:24;;;;;;;21.40;3.90;;;;;;;;;;5037061;28;20041;-83
2023/05/06 04:34:50;;;;;;;19.10;3.90;;;;;;;;;;5033147;28;20082;-81
2023/05/06 04:37:17;;;;;;;19.23;4.05;;;;;;;;;;5042455;28;20041;-82
2023/05/06 04:39:46;;;;;;;22.67;3.63;;;;;;;;;;5046148;28;20071;-83
2023/05/06 04:42:12;;;;;;;17.75;3.63;;;;;;;;;;5045754;28;20037;-83
2023/05/06 04:44:37;;;;;;;21.80;3.80;;;;;;;;;;5034287;28;20179;-82
2023/05/06 04:47:02;;;;;;;15.57;3.30;;;;;;;;;;5038307;28;20124;-82
2023/05/06 04:49:28;;;;;;;16.60;3.13;;;;;;;;;;5036120;28;20049;-83
2023/05/06 04:51:53;;;;;;;18.10;3.92;;;;;;;;;;5034711;28;20076;-81
2023/05/06 04:54:19;;;;;;;17.25;3.33;;;;;;;;;;5032220;28;20040;-83
2023/05/06 04:56:44;;;;;;;12.68;3.10;;;;;;;;;;5037047;28;20570;-83
2023/05/06 04:59:09;;;;;;;18.63;3.20;;;;;;;;;;5034723;28;20045;-83
2023/05/06 05:01:35;;;;;;;10.82;2.78;;;;;;;;;;5034226;28;20044;-83
2023/05/06 05:04:00;;;;;;;14.18;2.92;;;;;;;;;;5042639;28;20485;-81
2023/05/06 05:06:25;;;;;;;11.70;3.80;;;;;;;;;;5041127;28;20469;-83
2023/05/06 05:08:51;;;;;;;11.25;2.80;;;;;;;;;;5045160;28;20117;-83
2023/05/06 05:11:16;;;;;;;10.88;2.80;;;;;;;;;;5041048;28;20049;-83
2023/05/06 05:13:41;;;;;;;22.05;3.45;;;;;;;;;;5048481;28;20388;-83
2023/05/06 05:16:07;;;;;;;14.52;3.15;;;;;;;;;;5046075;28;20048;-82
2023/05/06 05:18:32;;;;;;;11.43;2.80;;;;;;;;;;5050741;28;20453;-82
2023/05/06 05:20:58;;;;;;;17.45;3.53;;;;;;;;;;5033331;28;20030;-82
2023/05/06 05:23:23;;;;;;;7.38;2.53;;;;;;;;;;5045165;28;20041;-83
2023/05/06 05:25:49;;;;;;;12.32;3.40;;;;;;;;;;5039336;28;20033;-82
2023/05/06 05:28:14;;;;;;;15.13;2.90;;;;;;;;;;5043659;28;20043;-82
2023/05/06 05:30:39;;;;;;;19.25;3.42;;;;;;;;;;5040802;28;20373;-81
2023/05/06 05:33:05;;;;;;;18.20;2.92;;;;;;;;;;5035366;28;20469;-81
2023/05/06 05:35:30;;;;;;;16.80;3.65;;;;;;;;;;5035306;28;20053;-82
2023/05/06 05:37:56;;;;;;;13.73;3.33;;;;;;;;;;5045777;28;20048;-82
2023/05/06 05:40:21;;;;;;;16.02;3.28;;;;;;;;;;5047068;28;20037;-82
2023/05/06 05:42:46;;;;;;;13.50;3.00;;;;;;;;;;5045579;28;20043;-83
2023/05/06 05:45:12;;;;;;;17.00;3.50;;;;;;;;;;5037313;28;20037;-81
2023/05/06 05:47:37;;;;;;;10.18;2.60;;;;;;;;;;5050494;28;20052;-82
2023/05/06 05:50:03;;;;;;;10.98;2.72;;;;;;;;;;5049799;28;20385;-83
2023/05/06 05:52:29;;;;;;;18.15;3.08;;;;;;;;;;5040767;28;20063;-82
2023/05/06 05:54:54;;;;;;;11.43;2.65;;;;;;;;;;5044578;28;20052;-83
2023/05/06 05:57:20;;;;;;;11.77;4.18;;;;;;;;;;5041854;28;20065;-83
2023/05/06 05:59:45;;;;;;;15.35;3.10;;;;;;;;;;5041414;28;20037;-82
2023/05/06 06:02:10;;;;;;;11.55;3.10;;;;;;;;;;5037569;28;20500;-81
2023/05/06 06:04:36;;;;;;;15.75;3.08;;;;;;;;;;5038003;28;20038;-83
2023/05/06 06:07:01;;;;;;;11.07;2.80;;;;;;;;;;5050205;28;20045;-82
2023/05/06 06:09:27;;;;;;;10.35;2.38;;;;;;;;;;5043686;28;20465;-83
2023/05/06 06:11:53;;;;;;;11.27;2.50;;;;;;;;;;5047037;28;20090;-83
2023/05/06 06:14:18;;;;;;;8.43;2.45;;;;;;;;;;5040563;28;20033;-82
2023/05/06 06:16:43;;;;;;;12.32;2.97;;;;;;;;;;5038598;28;20037;-83
2023/05/06 06:19:09;;;;;;;10.85;2.25;;;;;;;;;;5030790;28;20647;-82
2023/05/06 06:21:34;;;;;;;11.35;2.47;;;;;;;;;;5034760;28;20048;-83
2023/05/06 06:24:00;;;;;;;6.53;1.90;;;;;;;;;;5046672;28;20127;-82
2023/05/06 06:26:25;;;;;;;6.78;2.05;;;;;;;;;;5049846;28;20424;-82
2023/05/06 06:28:51;;;;;;;13.02;2.28;;;;;;;;;;5050345;28;20124;-83
2023/05/06 06:31:16;;;;;;;10.63;2.42;;;;;;;;;;5042085;28;20119;-83
2023/05/06 06:33:42;;;;;;;7.68;2.05;;;;;;;;;;5047769;28;20592;-83
2023/05/06 06:36:07;;;;;;;6.80;2.25;;;;;;;;;;5025304;28;20049;-84
2023/05/06 06:38:33;;;;;;;6.85;2.03;;;;;;;;;;5038830;28;20091;-84
2023/05/06 06:40:58;;;;;;;10.48;2.35;;;;;;;;;;5046907;28;20465;-84
2023/05/06 06:43:23;;;;;;;8.65;2.38;;;;;;;;;;5036502;28;20198;-84
2023/05/06 06:45:49;;;;;;;6.63;1.77;;;;;;;;;;5040338;28;20124;-86
2023/05/06 06:48:15;;;;;;;6.43;2.10;;;;;;;;;;5037833;28;20033;-84
2023/05/06 06:50:40;;;;;;;11.10;2.05;;;;;;;;;;5047762;28;20482;-86
2023/05/06 06:53:06;;;;;;;8.25;2.25;;;;;;;;;;5040651;28;20045;-84
2023/05/06 06:55:31;;;;;;;9.43;1.95;;;;;;;;;;5045464;28;20441;-85
2023/05/06 06:57:56;;;;;;;9.20;1.98;;;;;;;;;;5049841;28;20047;-82
2023/05/06 07:00:22;;;;;;;12.02;2.65;;;;;;;;;;5036661;28;20449;-85
2023/05/06 07:02:48;;;;;;;6.32;1.80;;;;;;;;;;5038344;28;20029;-85
2023/05/06 07:05:13;;;;;;;10.57;2.45;;;;;;;;;;5045473;28;20087;-84
2023/05/06 07:07:39;;;;;;;4.82;1.90;;;;;;;;;;5050281;28;20102;-84
2023/05/06 07:10:05;;;;;;;6.55;2.00;;;;;;;;;;5041569;28;20049;-85
2023/05/06 07:12:30;;;;;;;9.00;2.10;;;;;;;;;;5037092;28;20447;-81
2023/05/06 07:14:56;;;;;;;5.65;2.15;;;;;;;;;;5035219;28;20049;-83
2023/05/06 07:17:21;;;;;;;10.45;1.70;;;;;;;;;;5043470;28;20054;-83
2023/05/06 07:19:46;;;;;;;7.22;2.35;;;;;;;;;;5045217;28;20047;-82
2023/05/06 07:22:12;;;;;;;12.57;2.40;;;;;;;;;;5034603;28;20041;-82
2023/05/06 07:24:37;;;;;;;8.43;2.58;;;;;;;;;;5040498;28;20037;-82
2023/05/06 07:27:03;;;;;;;11.48;2.42;;;;;;;;;;5033815;28;20037;-82
2023/05/06 07:29:28;;;;;;;7.55;2.95;;;;;;;;;;5040196;28;20040;-82
2023/05/06 07:31:54;;;;;;;12.57;2.45;;;;;;;;;;5034081;28;20018;-83
2023/05/06 07:34:19;;;;;;;12.63;2.95;;;;;;;;;;5030627;28;20041;-82
2023/05/06 07:36:45;;;;;;;5.97;2.30;;;;;;;;;;5036989;28;20033;-82
2023/05/06 07:39:11;;;;;;;19.77;2.85;;;;;;;;;;5035684;28;20044;-82
2023/05/06 07:41:36;;;;;;;6.88;2.75;;;;;;;;;;5043620;28;20521;-80
2023/05/06 07:44:02;;;;;;;8.20;2.22;;;;;;;;;;5040551;28;20087;-82
2023/05/06 07:46:28;;;;;;;16.83;2.70;;;;;;;;;;5052878;28;20111;-81
2023/05/06 07:48:53;;;;;;;8.18;2.58;;;;;;;;;;5038786;28;20041;-82
2023/05/06 07:51:18;;;;;;;10.00;2.70;;;;;;;;;;5039325;28;20037;-80
2023/05/06 07:53:44;;;;;;;7.35;2.30;;;;;;;;;;5038472;28;20032;-81
2023/05/06 07:56:09;;;;;;;9.27;2.45;;;;;;;;;;5048299;28;20057;-82
2023/05/06 07:58:35;;;;;;;10.63;2.50;;;;;;;;;;5044915;28;20045;-82
2023/05/06 08:01:00;;;;;;;7.97;2.35;;;;;;;;;;5038928;28;20029;-82
2023/05/06 08:03:25;;;;;;;10.70;2.15;;;;;;;;;;5036133;28;20048;-81
2023/05/06 08:05:51;;;;;;;8.55;2.10;;;;;;;;;;5043489;28;20544;-81
2023/05/06 08:08:18;;;;;;;3.78;1.60;;;;;;;;;;5038618;28;20037;-82
2023/05/06 08:10:44;;;;;;;13.05;2.03;;;;;;;;;;5053732;28;20069;-81
2023/05/06 08:13:10;;;;;;;6.20;1.95;;;;;;;;;;5031248;28;20072;-81
2023/05/06 08:15:36;;;;;;;10.43;2.17;;;;;;;;;;5036011;28;20034;-81
2023/05/06 08:18:01;;;;;;;9.85;1.70;;;;;;;;;;5031258;28;20045;-80
2023/05/06 08:20:26;;;;;;;12.15;2.55;;;;;;;;;;5044200;28;20033;-80
2023/05/06 08:22:52;;;;;;;10.80;2.47;;;;;;;;;;5035845;28;20400;-79
2023/05/06 08:25:17;;;;;;;12.57;3.92;;;;;;;;;;5044808;28;20036;-79
2023/05/06 08:27:43;;;;;;;12.80;3.80;;;;;;;;;;5034071;28;20037;-79
2023/05/06 08:30:10;;;;;;;14.18;3.65;;;;;;;;;;5058994;28;20110;-79
2023/05/06 08:32:35;;;;;;;9.13;2.63;;;;;;;;;;5031114;28;20507;-79
2023/05/06 08:35:00;;;;;;;7.47;2.60;;;;;;;;;;5042438;28;20075;-79
2023/05/06 08:37:26;;;;;;;7.40;2.42;;;;;;;;;;5034012;28;20378;-79
2023/05/06 08:39:51;;;;;;;10.95;2.47;;;;;;;;;;5024075;28;20061;-78
2023/05/06 08:42:16;;;;;;;11.85;2.40;;;;;;;;;;5033807;28;20041;-78
2023/05/06 08:44:43;;;;;;;9.43;2.70;;;;;;;;;;5040875;28;20036;-78
2023/05/06 08:47:08;;;;;;;11.05;3.03;;;;;;;;;;5065339;28;20037;-78
2023/05/06 08:49:34;;;;;;;11.77;2.38;;;;;;;;;;5045288;28;20044;-77
2023/05/06 08:52:03;;;;;;;6.55;1.90;;;;;;;;;;5049142;28;20064;-77
2023/05/06 08:54:33;;;;;;;8.43;2.40;;;;;;;;;;5036743;28;20045;-78
2023/05/06 08:56:59;;;;;;;6.43;2.20;;;;;;;;;;5038730;28;20033;-78
2023/05/06 08:59:26;;;;;;;7.78;2.33;;;;;;;;;;5040338;28;20504;-77
2023/05/06 09:01:52;;;;;;;7.50;2.25;;;;;;;;;;5050835;28;20033;-78
2023/05/06 09:04:18;;;;;;;7.93;1.88;;;;;;;;;;5045759;28;20069;-78
2023/05/06 09:06:43;;;;;;;10.68;2.38;;;;;;;;;;5041988;28;20037;-78
2023/05/06 09:09:08;;;;;;;9.20;2.13;;;;;;;;;;5033061;28;20048;-78
2023/05/06 09:11:37;;;;;;;4.88;1.98;;;;;;;;;;5031339;28;20073;-77
2023/05/06 09:14:14;;;;;;;4.97;1.58;;;;;;;;;;5044192;28;20615;-78
2023/05/06 09:16:45;;;;;;;10.82;1.70;;;;;;;;;;5046125;28;20034;-78
2023/05/06 09:19:12;;;;;;;6.70;1.80;;;;;;;;;;5029350;28;20505;-77
2023/05/06 09:21:39;;;;;;;7.80;1.75;;;;;;;;;;5040513;28;20041;-77
2023/05/06 09:24:06;;;;;;;5.88;1.63;;;;;;;;;;5046249;28;20044;-77
2023/05/06 09:26:34;;;;;;;2.28;1.08;;;;;;;;;;5039108;28;20043;-77
2023/05/06 09:29:00;;;;;;;7.35;1.80;;;;;;;;;;5041643;28;20037;-77
2023/05/06 09:31:26;;;;;;;2.40;1.30;;;;;;;;;;5036047;28;20052;-77
2023/05/06 09:33:56;;;;;;;7.03;1.23;;;;;;;;;;5044327;28;20033;-79
2023/05/06 09:36:24;;;;;;;2.95;1.65;;;;;;;;;;5031735;28;20037;-77
2023/05/06 09:38:49;;;;;;;2.95;1.17;;;;;;;;;;5030295;28;20101;-78
2023/05/06 09:41:19;;;;;;;10.48;1.20;;;;;;;;;;5030200;28;20152;-78
2023/05/06 09:43:47;;;;;;;4.35;1.17;;;;;;;;;;5032540;28;20120;-77
2023/05/06 09:46:13;;;;;;;4.95;1.10;;;;;;;;;;5040761;28;20037;-78
2023/05/06 09:48:39;;;;;;;8.35;1.42;;;;;;;;;;5049915;28;20025;-78
2023/05/06 09:51:06;;;;;;;2.17;1.00;;;;;;;;;;5042119;28;20064;-78
2023/05/06 09:53:33;;;;;;;1.25;0.70;;;;;;;;;;5056563;28;20491;-78
2023/05/06 09:56:00;;;;;;;4.13;0.90;;;;;;;;;;5045745;28;20057;-78
2023/05/06 09:58:25;;;;;;;2.33;0.77;;;;;;;;;;5059159;28;20072;-79
2023/05/06 10:00:51;;;;;;;3.80;1.25;;;;;;;;;;5049241;28;20044;-78
2023/05/06 10:03:19;;;;;;;1.83;0.98;;;;;;;;;;5034278;28;20043;-78
2023/05/06 10:05:44;;;;;;;1.38;0.80;;;;;;;;;;5058378;28;20036;-78
2023/05/06 10:08:12;;;;;;;3.90;1.10;;;;;;;;;;5044567;28;20111;-78
2023/05/06 10:10:40;;;;;;;5.03;1.17;;;;;;;;;;5047595;28;20473;-77
2023/05/06 10:13:05;;;;;;;4.38;1.10;;;;;;;;;;5041589;28;20128;-78
2023/05/06 10:15:31;;;;;;;2.50;1.00;;;;;;;;;;5056786;28;20112;-78
2023/05/06 10:17:58;;;;;;;1.40;0.65;;;;;;;;;;5036350;28;20388;-78
2023/05/06 10:20:25;;;;;;;4.50;1.00;;;;;;;;;;5066329;28;20040;-79
2023/05/06 10:23:06;;;;;;;3.10;0.80;;;;;;;;;;5066274;28;20045;-78
2023/05/06 10:25:41;;;;;;;2.35;0.70;;;;;;;;;;5043878;28;20029;-78
2023/05/06 10:28:11;;;;;;;2.50;1.00;;;;;;;;;;5033179;28;20049;-78
2023/05/06 10:30:38;;;;;;;2.80;0.82;;;;;;;;;;5043108;28;20477;-78
2023/05/06 10:33:08;;;;;;;2.25;1.00;;;;;;;;;;5051608;28;20090;-78
2023/05/06 10:35:40;;;;;;;4.30;0.82;;;;;;;;;;5067002;28;20043;-78
2023/05/06 10:38:09;;;;;;;3.50;1.02;;;;;;;;;;5047815;28;20063;-79
2023/05/06 10:40:35;;;;;;;4.25;1.30;;;;;;;;;;5040170;28;20149;-78
2023/05/06 10:43:42;;;;;;;4.85;1.25;;;;;;;;;;5034004;28;20498;-78
2023/05/06 10:46:13;;;;;;;2.03;0.82;;;;;;;;;;4989658;28;20057;-78
2023/05/06 10:49:05;;;;;;;3.03;1.08;;;;;;;;;;4992135;28;20034;-78
2023/05/06 10:51:37;;;;;;;1.98;0.85;;;;;;;;;;5028648;28;20049;-78
2023/05/06 10:54:05;;;;;;;4.55;1.92;;;;;;;;;;5065177;28;20060;-78
2023/05/06 10:56:35;;;;;;;2.40;1.00;;;;;;;;;;5049191;28;20053;-78
2023/05/06 10:59:10;;;;;;;0.88;0.40;;;;;;;;;;5052611;28;20087;-78
2023/05/06 11:01:54;;;;;;;1.08;0.50;;;;;;;;;;5034798;28;20091;-78
2023/05/06 11:04:20;;;;;;;2.42;0.82;;;;;;;;;;5032482;28;20044;-79
2023/05/06 11:06:47;;;;;;;3.30;0.75;;;;;;;;;;5038104;28;20041;-78
2023/05/06 11:09:22;;;;;;;3.05;0.70;;;;;;;;;;5038424;28;20052;-78
2023/05/06 11:11:50;;;;;;;3.95;0.90;;;;;;;;;;5025703;28;20095;-78
2023/05/06 11:14:24;;;;;;;4.20;0.90;;;;;;;;;;5034892;28;20040;-77
2023/05/06 11:16:51;;;;;;;0.88;0.68;;;;;;;;;;5032208;28;20030;-77
2023/05/06 11:19:37;;;;;;;2.65;0.70;;;;;;;;;;5031218;28;20080;-77
2023/05/06 11:22:04;;;;;;;3.05;1.00;;;;;;;;;;5023238;28;20136;-77
2023/05/06 11:24:31;;;;;;;2.22;0.90;;;;;;;;;;5048353;28;20038;-77
2023/05/06 11:26:59;;;;;;;1.65;0.65;;;;;;;;;;5043479;28;20037;-76
2023/05/06 11:29:25;;;;;;;1.38;0.80;;;;;;;;;;5044512;28;20041;-76
2023/05/06 11:31:52;;;;;;;5.78;1.10;;;;;;;;;;5040663;28;20033;-77
2023/05/06 11:34:22;;;;;;;1.48;0.80;;;;;;;;;;5035424;28;20444;-77
2023/05/06 11:36:50;;;;;;;1.08;0.63;;;;;;;;;;5031404;28;20041;-78
2023/05/06 11:39:15;;;;;;;1.10;0.70;;;;;;;;;;5032727;28;20025;-80
2023/05/06 11:41:41;;;;;;;0.60;0.45;;;;;;;;;;5049713;28;20039;-81
2023/05/06 11:44:08;;;;;;;1.33;0.70;;;;;;;;;;5057374;28;20076;-81
2023/05/06 11:46:34;;;;;;;1.02;0.50;;;;;;;;;;5046363;28;20040;-80
2023/05/06 11:49:00;;;;;;;2.35;0.75;;;;;;;;;;5044165;28;20033;-81
2023/05/06 11:51:25;;;;;;;1.25;0.60;;;;;;;;;;5048263;28;20051;-82
2023/05/06 11:54:13;;;;;;;1.63;0.70;;;;;;;;;;5039073;28;20791;-80
2023/05/06 11:56:52;;;;;;;0.60;0.50;;;;;;;;;;5049306;28;20499;-81
2023/05/06 11:59:33;;;;;;;1.60;0.60;;;;;;;;;;5025655;28;20124;-81
2023/05/06 12:02:00;;;;;;;2.55;0.60;;;;;;;;;;5047783;28;20033;-81
2023/05/06 12:04:26;;;;;;;2.65;0.50;;;;;;;;;;5047904;28;20568;-79
2023/05/06 12:06:54;;;;;;;0.45;0.32;;;;;;;;;;5048840;28;20112;-79
2023/05/06 12:09:21;;;;;;;1.20;0.60;;;;;;;;;;5030108;28;20045;-80
2023/05/06 12:11:46;;;;;;;0.95;0.43;;;;;;;;;;5031261;28;20048;-80
2023/05/06 12:14:12;;;;;;;1.55;0.50;;;;;;;;;;5059675;28;20028;-80
2023/05/06 12:16:37;;;;;;;1.48;0.45;;;;;;;;;;5042755;28;20098;-79
2023/05/06 12:19:04;;;;;;;1.02;0.63;;;;;;;;;;5052401;28;20038;-79
2023/05/06 12:21:31;;;;;;;0.80;0.50;;;;;;;;;;5011958;28;20452;-79
2023/05/06 12:23:58;;;;;;;1.45;0.70;;;;;;;;;;5030492;28;20061;-80
2023/05/06 12:26:26;;;;;;;2.40;0.50;;;;;;;;;;5034284;28;20052;-79
2023/05/06 12:29:09;;;;;;;2.45;0.95;;;;;;;;;;5044235;28;21045;-76
2023/05/06 12:31:35;;;;;;;5.30;1.00;;;;;;;;;;5028209;28;20115;-80
2023/05/06 12:34:00;;;;;;;1.30;0.70;;;;;;;;;;5029351;28;20043;-80
2023/05/06 12:36:26;;;;;;;2.95;1.15;;;;;;;;;;5033938;28;20037;-79
2023/05/06 12:38:56;;;;;;;1.50;0.80;;;;;;;;;;5033286;28;20041;-80
2023/05/06 12:41:22;;;;;;;1.40;0.77;;;;;;;;;;5029230;28;20032;-79
2023/05/06 12:43:48;;;;;;;1.10;0.60;;;;;;;;;;5009370;28;20041;-78
2023/05/06 12:46:15;;;;;;;1.10;0.70;;;;;;;;;;5032520;28;20103;-80
2023/05/06 12:48:55;;;;;;;2.45;1.20;;;;;;;;;;5039528;28;20057;-80
2023/05/06 12:51:20;;;;;;;1.80;1.10;;;;;;;;;;5036517;28;20041;-80
2023/05/06 12:53:46;;;;;;;2.63;1.52;;;;;;;;;;5030395;28;20531;-79
2023/05/06 12:56:12;;;;;;;0.70;0.40;;;;;;;;;;5031979;28;20045;-77
2023/05/06 12:58:38;;;;;;;1.00;0.57;;;;;;;;;;5041367;28;20037;-79
2023/05/06 13:01:04;;;;;;;4.72;0.60;;;;;;;;;;5029752;28;20480;-80
2023/05/06 13:03:29;;;;;;;5.55;0.63;;;;;;;;;;5038650;28;20044;-80
2023/05/06 13:05:55;;;;;;;0.85;0.60;;;;;;;;;;5029333;28;20053;-80
2023/05/06 13:08:20;;;;;;;1.60;0.80;;;;;;;;;;5029154;28;20476;-76
2023/05/06 13:10:45;;;;;;;1.15;0.70;;;;;;;;;;5031242;28;20025;-77
2023/05/06 13:13:11;;;;;;;1.10;0.63;;;;;;;;;;5020119;28;20370;-80
2023/05/06 13:15:37;;;;;;;3.65;0.60;;;;;;;;;;5028791;28;20405;-80
2023/05/06 13:18:03;;;;;;;1.25;0.70;;;;;;;;;;5027245;28;20045;-79
2023/05/06 13:20:31;;;;;;;2.42;1.23;;;;;;;;;;5032443;28;20501;-79
2023/05/06 13:22:56;;;;;;;1.30;0.73;;;;;;;;;;5029628;28;20401;-78
2023/05/06 13:25:22;;;;;;;1.38;0.73;;;;;;;;;;5037568;28;20038;-77
2023/05/06 13:27:47;;;;;;;1.60;0.90;;;;;;;;;;5035660;28;20124;-82
2023/05/06 13:30:13;;;;;;;2.20;1.00;;;;;;;;;;5026938;28;20033;-82
2023/05/06 13:32:38;;;;;;;3.47;0.80;;;;;;;;;;5041641;28;20037;-83
2023/05/06 13:35:04;;;;;;;2.53;1.00;;;;;;;;;;5041415;28;20045;-81
2023/05/06 13:37:30;;;;;;;2.60;1.00;;;;;;;;;;5037509;28;20025;-77
2023/05/06 13:39:55;;;;;;;1.63;0.88;;;;;;;;;;5041044;28;20151;-81
2023/05/06 13:42:20;;;;;;;1.58;0.90;;;;;;;;;;5037776;28;20136;-82
2023/05/06 13:44:46;;;;;;;1.95;1.10;;;;;;;;;;5034994;28;20398;-81
2023/05/06 13:47:11;;;;;;;3.05;1.00;;;;;;;;;;5032339;28;20111;-80
2023/05/06 13:49:36;;;;;;;1.75;0.90;;;;;;;;;;5034748;28;20041;-82
2023/05/06 13:52:02;;;;;;;2.05;1.17;;;;;;;;;;5035104;28;20039;-82
2023/05/06 13:54:27;;;;;;;1.85;1.00;;;;;;;;;;5040461;28;20537;-82
2023/05/06 13:56:53;;;;;;;2.15;1.08;;;;;;;;;;5041827;28;20044;-82
2023/05/06 13:59:18;;;;;;;2.17;1.33;;;;;;;;;;5041522;28;20071;-81
2023/05/06 14:01:43;;;;;;;2.53;1.33;;;;;;;;;;5041108;28;20036;-80
2023/05/06 14:04:09;;;;;;;2.03;1.10;;;;;;;;;;5033847;28;20075;-81
2023/05/06 14:06:34;;;;;;;2.10;1.10;;;;;;;;;;5017592;28;20022;-82
2023/05/06 14:09:00;;;;;;;2.10;0.90;;;;;;;;;;5035284;28;20041;-79
2023/05/06 14:11:25;;;;;;;5.65;1.00;;;;;;;;;;5039675;28;20049;-82
2023/05/06 14:13:51;;;;;;;3.42;1.10;;;;;;;;;;5040478;28;20042;-80
2023/05/06 14:16:16;;;;;;;1.80;1.00;;;;;;;;;;5039241;28;20026;-81
2023/05/06 14:18:42;;;;;;;1.63;0.90;;;;;;;;;;5028439;28;20489;-82
2023/05/06 14:21:08;;;;;;;2.38;1.02;;;;;;;;;;5031003;28;20087;-82
2023/05/06 14:23:33;;;;;;;2.42;1.02;;;;;;;;;;5047947;28;20079;-76
2023/05/06 14:25:59;;;;;;;3.00;1.70;;;;;;;;;;5039909;28;20470;-81
2023/05/06 14:28:24;;;;;;;4.25;1.70;;;;;;;;;;5044701;28;20029;-84
2023/05/06 14:30:50;;;;;;;4.45;2.50;;;;;;;;;;5045313;28;20029;-85
2023/05/06 14:33:15;;;;;;;9.30;4.88;;;;;;;;;;5039111;28;20056;-81